Castleton State College, Vermont
Current Conditions -  °F | °C
As of 5:35 AM on Sunday 25 Jan 2015 (Local Time) from KRUT Reporting Station
Overcast Overcast  
Wind Chill: 23°   Ceiling: 2500
Heat Index: 30°   Visibility: 10mi
Dew Point: 25°   Wind: 8mph
Humidity: 80%   Direction: 240°WSW
Pressure: 29.39"   Gusts: NA
Location:  43.6401°N, 73.1505°W
Report Text: KRUT 251035Z 24007KT 10SM FEW019 BKN025 OVC070 M01/M04 A2939 RMK AO1
Loading
Personal Weather Stations






























Interactive Weather Map New forecast layout! Learn more

10-Day Weather Forecast

Advertisements
Track Severe Weather on mobile